Terminal Aerodrome Forecast
Issued by NWS

Home | Current Version | Previous Version | Text Only | Print | Product List | Glossary On
Versions: 1 2 3 4 5 6 7 8 9 10 11 12 13 14 15
386
FTUS46 KSGX 131605 AAB
TAFSNA
TAF AMD
KSNA 131605Z 1316/1412 VRB05KT 1/4SM FG VV001
     FM131700 VRB04KT 3SM BR BKN003
     FM131730 24007KT P6SM FEW004
     FM140200 VRB04KT P6SM VCFG FEW005
      TEMPO 1406/1410 1/4SM FG VV001=

USA.gov is the U.S. government's official web portal to all federal, state and local government web resources and services.